Time;durP1;ratioP1;P1;durP2;ratioP2;P2;SDS_P1;SDS_P2;PMS_P1;PMS_P2;Temp;Humidity;BMP_temperature;BMP_pressure;BME280_temperature;BME280_humidity;BME280_pressure;Samples;Min_cycle;Max_cycle;Signal;HPM_P1;HPM_P2
2022/05/02 00:03:38;;;;;;;14.68;8.50;;;;;;;8.72;57.73;100963.31;8578345;33;20558;-73
2022/05/02 00:08:41;;;;;;;10.90;8.15;;;;;;;8.69;57.88;100950.09;8580875;33;20268;-72
2022/05/02 00:13:45;;;;;;;12.10;8.32;;;;;;;8.60;57.80;100945.34;8582658;33;20510;-72
2022/05/02 00:18:48;;;;;;;13.70;8.25;;;;;;;8.57;57.90;100937.50;8559014;33;20993;-72
2022/05/02 00:23:52;;;;;;;13.30;9.02;;;;;;;8.52;58.61;100942.28;8584059;33;20419;-72
2022/05/02 00:28:56;;;;;;;9.55;7.65;;;;;;;8.51;58.23;100935.22;8583791;33;20556;-72
2022/05/02 00:33:59;;;;;;;10.75;7.45;;;;;;;8.48;58.10;100930.06;8583355;33;20701;-72
2022/05/02 00:39:02;;;;;;;10.10;7.00;;;;;;;8.44;58.29;100929.34;8578908;33;20148;-72
2022/05/02 00:44:07;;;;;;;9.43;6.90;;;;;;;8.34;58.59;100923.72;8579722;33;20140;-72
2022/05/02 00:49:10;;;;;;;10.18;7.75;;;;;;;8.17;59.25;100926.59;8576761;33;20326;-72
2022/05/02 00:54:13;;;;;;;11.13;7.95;;;;;;;8.21;59.33;100921.94;8581062;33;20198;-72
2022/05/02 00:59:20;;;;;;;9.88;7.95;;;;;;;8.13;59.08;100920.56;8582533;33;20159;-72
2022/05/02 01:04:23;;;;;;;10.27;7.57;;;;;;;8.14;59.26;100924.09;8579848;33;20622;-72
2022/05/02 01:09:26;;;;;;;10.73;7.20;;;;;;;8.16;59.43;100917.69;8583582;33;20533;-72
2022/05/02 01:14:33;;;;;;;11.38;8.30;;;;;;;8.24;59.40;100924.41;8584051;33;20674;-72
2022/05/02 01:19:37;;;;;;;12.35;8.27;;;;;;;8.16;59.44;100917.69;8583206;33;20148;-72
2022/05/02 01:24:48;;;;;;;11.32;7.20;;;;;;;8.13;59.48;100909.88;8580965;33;20175;-72
2022/05/02 01:29:52;;;;;;;11.18;7.00;;;;;;;7.94;59.64;100902.13;8574918;33;20410;-72
2022/05/02 01:34:55;;;;;;;12.10;7.50;;;;;;;7.83;60.50;100911.78;8546871;33;20412;-72
2022/05/02 01:39:59;;;;;;;11.95;7.43;;;;;;;7.71;60.46;100900.88;8573233;33;20152;-72
2022/05/02 01:45:04;;;;;;;9.73;6.60;;;;;;;7.69;61.21;100896.56;8571393;33;20716;-72
2022/05/02 01:50:08;;;;;;;10.75;7.18;;;;;;;7.66;60.92;100902.09;8569128;33;20279;-72
2022/05/02 01:55:12;;;;;;;10.48;7.22;;;;;;;7.70;60.74;100900.94;8568658;33;20147;-73
2022/05/02 02:00:16;;;;;;;10.38;6.72;;;;;;;7.58;60.86;100899.03;8567998;33;20510;-73
2022/05/02 02:10:41;;;;;;;9.00;6.32;;;;;;;7.78;60.93;100890.66;8575465;33;20640;-73
2022/05/02 02:15:45;;;;;;;10.73;7.78;;;;;;;7.79;60.90;100889.72;8584525;33;20428;-73
2022/05/02 02:20:50;;;;;;;11.50;6.60;;;;;;;7.66;60.93;100883.38;8598942;33;20176;-72
2022/05/02 02:25:55;;;;;;;11.63;7.28;;;;;;;7.62;61.23;100876.50;8597953;33;20420;-73
2022/05/02 02:30:58;;;;;;;8.23;6.53;;;;;;;7.40;62.22;100876.94;8599928;33;20420;-73
2022/05/02 02:36:01;;;;;;;8.10;6.88;;;;;;;7.24;62.37;100872.50;8599851;33;20534;-73
2022/05/02 02:41:06;;;;;;;10.02;7.07;;;;;;;6.97;62.91;100883.00;8587279;33;21036;-73
2022/05/02 02:46:08;;;;;;;10.73;6.70;;;;;;;6.86;63.21;100874.72;8586292;33;20386;-73
2022/05/02 02:51:12;;;;;;;11.27;7.03;;;;;;;6.41;65.08;100873.69;8583586;33;20567;-73
2022/05/02 02:56:16;;;;;;;11.48;7.20;;;;;;;6.17;66.15;100871.47;8579572;33;20289;-72
2022/05/02 03:01:19;;;;;;;11.77;7.70;;;;;;;6.47;66.18;100859.16;8579829;33;20507;-72
2022/05/02 03:06:22;;;;;;;12.52;8.00;;;;;;;6.73;65.16;100853.19;8582767;33;20507;-73
2022/05/02 03:11:27;;;;;;;14.23;7.85;;;;;;;6.61;65.70;100854.78;8583369;33;20408;-73
2022/05/02 03:16:30;;;;;;;13.32;8.82;;;;;;;6.76;65.76;100860.19;8578242;33;20250;-73
2022/05/02 03:21:33;;;;;;;12.48;8.07;;;;;;;6.75;65.61;100861.13;8577854;33;20224;-73
2022/05/02 03:26:37;;;;;;;12.13;8.75;;;;;;;6.81;65.96;100852.75;8613250;27;20149;-73
2022/05/02 03:31:41;;;;;;;13.40;8.95;;;;;;;6.93;65.28;100848.53;8755247;32;20476;-74
2022/05/02 03:36:44;;;;;;;13.25;8.68;;;;;;;7.13;64.83;100836.69;8755929;32;20152;-74
2022/05/02 03:41:49;;;;;;;13.40;9.55;;;;;;;7.24;64.26;100834.22;8756063;32;20629;-74
2022/05/02 03:46:52;;;;;;;15.52;8.85;;;;;;;7.23;63.58;100844.06;8747502;32;20941;-74
2022/05/02 03:51:55;;;;;;;16.15;10.20;;;;;;;6.91;64.02;100845.09;8723322;32;20436;-72
2022/05/02 03:57:00;;;;;;;15.48;8.82;;;;;;;6.95;65.06;100844.84;8750096;32;20157;-74
2022/05/02 04:02:04;;;;;;;16.13;10.27;;;;;;;7.19;65.21;100849.69;8762907;32;20499;-73
2022/05/02 04:07:08;;;;;;;15.63;9.23;;;;;;;7.38;64.73;100846.78;8761245;32;20927;-73
2022/05/02 04:12:12;;;;;;;13.70;8.95;;;;;;;7.53;64.65;100843.16;8766459;32;20321;-74
2022/05/02 04:17:15;;;;;;;13.48;9.32;;;;;;;7.64;63.90;100846.03;8729425;32;20615;-73
2022/05/02 04:22:18;;;;;;;12.70;9.05;;;;;;;7.59;64.75;100841.91;8753795;32;20401;-74
2022/05/02 04:27:23;;;;;;;15.30;9.57;;;;;;;7.74;64.86;100851.69;8757076;32;20436;-74
2022/05/02 04:32:26;;;;;;;11.85;8.77;;;;;;;7.82;64.16;100845.88;8755845;32;20153;-74
2022/05/02 04:37:29;;;;;;;15.10;9.90;;;;;;;7.90;63.93;100849.78;8752709;32;20266;-74
2022/05/02 04:42:34;;;;;;;13.75;8.65;;;;;;;7.88;63.91;100854.34;8754161;32;20532;-74
2022/05/02 04:47:37;;;;;;;14.15;9.65;;;;;;;7.59;64.21;100856.16;8756060;32;20145;-73
2022/05/02 04:52:40;;;;;;;14.55;9.20;;;;;;;7.34;64.39;100848.75;8751497;32;20237;-72
2022/05/02 04:57:44;;;;;;;13.65;9.35;;;;;;;7.00;66.54;100856.13;8754657;32;20161;-74
2022/05/02 05:02:47;;;;;;;15.00;9.75;;;;;;;6.87;68.03;100855.09;8756179;32;20549;-72
2022/05/02 05:07:51;;;;;;;15.88;9.55;;;;;;;7.12;67.05;100848.31;8757718;32;20369;-74
2022/05/02 05:13:09;;;;;;;13.93;9.77;;;;;;;7.23;66.19;100854.75;8758666;32;20134;-74
2022/05/02 05:18:25;;;;;;;14.30;9.95;;;;;;;6.91;65.76;100856.66;8757645;32;20164;-74
2022/05/02 05:23:52;;;;;;;13.65;9.65;;;;;;;7.03;66.61;100845.25;8757820;32;20144;-73
2022/05/02 05:29:14;;;;;;;16.63;9.98;;;;;;;7.29;65.87;100842.81;8757056;32;20288;-73
2022/05/02 05:34:34;;;;;;;21.27;10.32;;;;;;;7.15;64.12;100837.44;8732262;32;20167;-73
2022/05/02 05:39:46;;;;;;;14.80;10.02;;;;;;;7.24;65.32;100834.22;8753487;32;20417;-74
2022/05/02 05:45:02;;;;;;;14.60;9.75;;;;;;;7.37;65.54;100847.72;8749701;32;20407;-73
2022/05/02 05:50:20;;;;;;;14.23;9.98;;;;;;;7.37;66.55;100842.38;8746333;32;20516;-73
2022/05/02 05:55:29;;;;;;;17.13;10.77;;;;;;;7.64;66.04;100846.03;8745933;32;20231;-73
2022/05/02 06:00:43;;;;;;;16.42;10.38;;;;;;;7.88;65.86;100849.00;8750206;32;20930;-72
2022/05/02 06:05:48;;;;;;;14.32;9.07;;;;;;;8.16;63.98;100848.13;8749988;32;20500;-74
2022/05/02 06:10:53;;;;;;;20.70;14.23;;;;;;;8.01;65.09;100856.25;8752143;32;20410;-73
2022/05/02 06:21:22;;;;;;;22.17;13.45;;;;;;;8.82;63.89;100848.38;8747636;32;20391;-72
2022/05/02 06:26:26;;;;;;;19.35;11.70;;;;;;;8.94;62.41;100855.59;8718780;32;20203;-72
2022/05/02 06:31:33;;;;;;;16.58;11.65;;;;;;;9.62;62.09;100849.16;8686444;33;20417;-74
2022/05/02 06:36:57;;;;;;;10.57;5.22;;;;;;;9.97;61.62;100842.31;8685135;33;20408;-73
2022/05/02 06:42:21;;;;;;;16.23;10.85;;;;;;;9.55;60.74;100858.63;8686878;33;20280;-73
2022/05/02 06:47:39;;;;;;;12.00;8.05;;;;;;;10.08;60.46;100855.84;8692675;33;20410;-74
2022/05/02 06:53:09;;;;;;;13.40;9.05;;;;;;;10.71;58.30;100851.25;8698515;33;20407;-72
2022/05/02 06:58:26;;;;;;;13.10;9.02;;;;;;;10.73;57.37;100847.47;8706730;33;20142;-73
2022/05/02 07:04:00;;;;;;;12.43;8.85;;;;;;;10.85;57.65;100861.81;8701833;33;20185;-72
2022/05/02 07:09:09;;;;;;;14.57;9.60;;;;;;;10.99;57.05;100852.72;8696760;33;20842;-74
2022/05/02 07:14:26;;;;;;;11.68;7.93;;;;;;;11.34;57.13;100851.91;8710302;32;20437;-72
2022/05/02 07:19:55;;;;;;;13.93;7.93;;;;;;;12.01;56.07;100843.91;8752174;32;20203;-73
2022/05/02 07:25:11;;;;;;;10.82;7.97;;;;;;;12.23;54.27;100844.88;8755311;32;20271;-73
2022/05/02 07:30:17;;;;;;;12.80;9.18;;;;;;;12.48;53.65;100844.66;8731515;32;20133;-74
2022/05/02 07:35:23;;;;;;;14.23;9.40;;;;;;;12.37;53.46;100842.84;8706075;32;21026;-73
2022/05/02 07:40:26;;;;;;;14.70;9.70;;;;;;;12.31;54.08;100837.06;8728538;32;20276;-73
2022/05/02 07:45:31;;;;;;;12.13;8.27;;;;;;;12.84;53.61;100850.69;8727106;32;20527;-73
2022/05/02 07:50:36;;;;;;;12.73;8.70;;;;;;;13.40;51.96;100836.09;8728833;32;20501;-73
2022/05/02 07:55:41;;;;;;;13.57;9.93;;;;;;;13.85;51.31;100828.56;8724219;32;20135;-73
2022/05/02 08:00:44;;;;;;;14.82;9.18;;;;;;;14.44;49.50;100828.78;8724019;32;20165;-73
2022/05/02 08:05:51;;;;;;;14.13;7.80;;;;;;;14.26;49.79;100823.16;8699835;33;20454;-73
2022/05/02 08:11:10;;;;;;;14.23;8.85;;;;;;;14.36;50.68;100824.03;8700949;33;20922;-73
2022/05/02 08:16:23;;;;;;;11.73;8.45;;;;;;;14.85;48.79;100826.84;8698525;33;20884;-73
2022/05/02 08:21:34;;;;;;;11.75;7.88;;;;;;;15.03;47.81;100825.16;8701220;33;20411;-72
2022/05/02 08:32:29;;;;;;;12.07;8.63;;;;;;;15.61;47.56;100825.09;8701881;33;20474;-73
2022/05/02 08:38:00;;;;;;;11.80;7.80;;;;;;;15.91;45.96;100810.47;8702855;33;20189;-73
2022/05/02 08:44:05;;;;;;;9.60;6.80;;;;;;;16.31;44.36;100817.41;8709832;33;20146;-73
2022/05/02 08:50:04;;;;;;;10.05;6.38;;;;;;;15.96;44.68;100815.41;8715007;32;20161;-73
2022/05/02 08:55:34;;;;;;;9.30;6.50;;;;;;;16.24;43.91;100812.75;8714644;33;20412;-75
2022/05/02 09:01:02;;;;;;;9.95;6.47;;;;;;;16.34;41.66;100811.69;8707839;33;20926;-75
2022/05/02 09:07:07;;;;;;;10.32;6.85;;;;;;;16.77;41.42;100809.28;8713618;33;20412;-75
2022/05/02 09:12:43;;;;;;;8.65;6.47;;;;;;;16.92;41.37;100798.72;8701157;33;20145;-76
2022/05/02 09:18:37;;;;;;;7.80;6.47;;;;;;;16.56;41.49;100791.44;8708087;33;20427;-75
2022/05/02 09:24:24;;;;;;;13.10;7.22;;;;;;;16.99;43.89;100792.53;8671958;33;20970;-73
2022/05/02 09:30:18;;;;;;;10.50;7.30;;;;;;;17.86;42.92;100782.63;8715111;27;20496;-71
2022/05/02 09:35:33;;;;;;;10.50;7.20;;;;;;;18.43;41.22;100783.88;8695469;33;20130;-71
2022/05/02 09:40:42;;;;;;;9.88;6.10;;;;;;;18.69;41.11;100770.16;8692673;33;20146;-72
2022/05/02 09:51:50;;;;;;;10.07;7.13;;;;;;;19.08;40.19;100756.75;8693633;33;20484;-72
2022/05/02 09:56:59;;;;;;;8.95;7.03;;;;;;;19.38;39.35;100752.47;8693407;33;20183;-71
2022/05/02 10:02:06;;;;;;;10.18;7.00;;;;;;;19.72;40.05;100745.94;8679271;33;20151;-72
2022/05/02 10:07:11;;;;;;;12.13;7.93;;;;;;;19.90;38.71;100745.69;8631240;33;20417;-72
2022/05/02 10:12:37;;;;;;;10.50;6.63;;;;;;;19.74;38.86;100751.22;8610850;33;20441;-72
2022/05/02 10:18:11;;;;;;;11.70;6.53;;;;;;;20.18;38.28;100746.06;8633268;33;20151;-72
2022/05/02 10:23:41;;;;;;;9.30;6.35;;;;;;;20.08;38.22;100740.84;8632754;33;20242;-72
2022/05/02 10:29:26;;;;;;;9.20;7.45;;;;;;;20.26;37.36;100728.81;8634476;33;20393;-72
2022/05/02 10:34:34;;;;;;;11.07;7.05;;;;;;;20.35;38.28;100727.78;8633144;33;20215;-71
2022/05/02 10:39:40;;;;;;;11.98;7.38;;;;;;;19.57;37.96;100718.56;8637479;33;20416;-72
2022/05/02 10:44:57;;;;;;;10.10;8.00;;;;;;;20.85;38.45;100720.91;8633393;33;20420;-72
2022/05/02 10:50:13;;;;;;;9.02;7.75;;;;;;;21.29;37.32;100713.88;8631483;33;20850;-72
2022/05/02 10:55:25;;;;;;;11.32;7.15;;;;;;;21.31;35.63;100711.78;8631950;33;20479;-72
2022/05/02 11:00:29;;;;;;;9.30;6.93;;;;;;;21.37;36.39;100709.19;8631494;33;20448;-72
2022/05/02 11:05:45;;;;;;;10.25;7.80;;;;;;;21.42;34.84;100697.69;8638611;33;20447;-72
2022/05/02 11:10:53;;;;;;;9.15;7.25;;;;;;;21.58;35.46;100692.00;8643673;33;20157;-72
2022/05/02 11:16:09;;;;;;;10.07;7.88;;;;;;;20.96;35.83;100695.06;8618282;33;20534;-72
2022/05/02 11:21:37;;;;;;;10.73;7.85;;;;;;;21.27;34.52;100688.63;8644106;33;21043;-72
2022/05/02 11:26:45;;;;;;;9.85;7.75;;;;;;;22.01;34.53;100686.69;8642527;33;20552;-71
2022/05/02 11:31:55;;;;;;;8.50;6.75;;;;;;;21.20;36.54;100692.13;8642875;33;20412;-71
2022/05/02 11:37:01;;;;;;;11.50;7.82;;;;;;;19.95;37.03;100690.66;8639703;33;20416;-71
2022/05/02 11:42:10;;;;;;;11.73;8.77;;;;;;;21.27;35.71;100678.53;8646261;33;20452;-70
2022/05/02 11:47:20;;;;;;;10.23;7.45;;;;;;;21.33;35.35;100680.50;8653593;33;20467;-71
2022/05/02 11:52:35;;;;;;;11.63;8.60;;;;;;;19.52;37.27;100681.94;8642951;33;20438;-71
2022/05/02 11:57:41;;;;;;;9.15;7.32;;;;;;;19.66;38.13;100675.78;8642230;33;20241;-71
2022/05/02 12:02:54;;;;;;;8.48;6.90;;;;;;;19.35;38.40;100673.81;8642917;33;20504;-72
2022/05/02 12:08:02;;;;;;;8.65;7.25;;;;;;;20.22;38.63;100675.66;8643577;33;21012;-72
2022/05/02 12:13:10;;;;;;;9.63;7.53;;;;;;;19.95;37.64;100666.97;8643315;33;20139;-72
2022/05/02 12:18:14;;;;;;;8.52;7.00;;;;;;;20.07;38.85;100661.94;8646185;33;21177;-71
2022/05/02 12:23:19;;;;;;;8.15;6.53;;;;;;;22.27;35.90;100652.47;8655567;33;20518;-70
2022/05/02 12:28:41;;;;;;;10.45;7.72;;;;;;;22.90;33.08;100649.91;8655635;33;20475;-71
2022/05/02 12:33:51;;;;;;;11.68;7.32;;;;;;;22.82;34.09;100639.97;8658235;33;20964;-72
2022/05/02 12:39:04;;;;;;;10.25;8.35;;;;;;;22.73;32.65;100632.91;8658162;33;20144;-71
2022/05/02 12:44:09;;;;;;;11.00;8.00;;;;;;;23.34;32.23;100629.56;8662355;33;20158;-72
2022/05/02 12:49:22;;;;;;;10.10;6.72;;;;;;;23.63;32.66;100625.69;8665569;33;20409;-71
2022/05/02 12:54:27;;;;;;;10.45;7.55;;;;;;;24.76;32.12;100624.03;8661697;33;20414;-72
2022/05/02 13:04:52;;;;;;;10.68;7.57;;;;;;;22.41;34.09;100616.00;8655909;33;20143;-72
2022/05/02 13:10:00;;;;;;;12.75;8.65;;;;;;;22.22;33.96;100620.25;8656904;33;20949;-71
2022/05/02 13:15:07;;;;;;;9.48;7.35;;;;;;;21.18;35.67;100611.38;8644307;33;20234;-71
2022/05/02 13:20:14;;;;;;;12.60;7.57;;;;;;;21.09;36.23;100617.97;8648775;33;20640;-72
2022/05/02 13:25:19;;;;;;;10.60;7.88;;;;;;;20.78;35.40;100611.59;8644979;33;20280;-73
2022/05/02 13:30:27;;;;;;;9.82;7.68;;;;;;;21.74;35.00;100598.00;8639505;33;20140;-72
2022/05/02 13:35:33;;;;;;;10.05;7.70;;;;;;;21.95;34.29;100594.50;8639772;33;20985;-72
2022/05/02 13:40:58;;;;;;;9.30;7.82;;;;;;;21.53;33.89;100592.50;8639140;33;20604;-72
2022/05/02 13:46:18;;;;;;;10.02;8.73;;;;;;;20.71;35.91;100586.09;8637875;33;20188;-72
2022/05/02 13:51:55;;;;;;;12.35;8.57;;;;;;;20.88;35.70;100578.56;8640034;33;20421;-72
2022/05/02 13:57:19;;;;;;;12.15;7.53;;;;;;;21.47;34.81;100574.13;8637187;33;20414;-72
2022/05/02 14:02:50;;;;;;;12.73;8.05;;;;;;;21.31;35.21;100572.47;8636723;33;20135;-71
2022/05/02 14:07:54;;;;;;;10.18;7.78;;;;;;;20.45;36.44;100572.00;8641324;33;20242;-73
2022/05/02 14:12:59;;;;;;;11.57;8.52;;;;;;;21.82;35.15;100561.53;8645770;33;20435;-72
2022/05/02 14:18:11;;;;;;;8.45;7.60;;;;;;;21.64;35.14;100564.69;8644203;33;20151;-71
2022/05/02 14:23:14;;;;;;;9.93;7.95;;;;;;;22.38;34.13;100555.31;8644052;33;20545;-72
2022/05/02 14:28:20;;;;;;;12.98;7.75;;;;;;;21.44;35.68;100553.50;8642933;33;20251;-72
2022/05/02 14:33:33;;;;;;;10.95;8.98;;;;;;;21.13;36.51;100551.84;8644068;33;20996;-72
2022/05/02 14:38:37;;;;;;;12.88;8.70;;;;;;;20.74;36.95;100550.22;8642839;33;20167;-72
2022/05/02 14:43:41;;;;;;;12.70;8.48;;;;;;;20.52;37.78;100553.88;8643226;33;20252;-72
2022/05/02 14:48:44;;;;;;;9.07;7.45;;;;;;;21.13;37.28;100543.66;8642267;33;20476;-72
2022/05/02 14:53:49;;;;;;;9.27;7.10;;;;;;;22.30;35.73;100539.91;8641760;33;20934;-72
2022/05/02 14:58:57;;;;;;;11.95;9.10;;;;;;;22.46;35.04;100536.06;8642132;33;20285;-72
2022/05/02 15:04:04;;;;;;;11.88;8.00;;;;;;;22.75;34.80;100535.84;8644906;33;20522;-71
2022/05/02 15:10:11;;;;;;;11.95;8.63;;;;;;;23.46;33.13;100532.00;8644085;33;20538;-71
2022/05/02 15:15:23;;;;;;;8.35;7.43;;;;;;;23.84;33.27;100518.63;8640086;33;20592;-72
2022/05/02 15:20:33;;;;;;;12.00;8.23;;;;;;;23.64;32.39;100507.59;8634316;33;20210;-71
2022/05/02 15:25:50;;;;;;;11.52;7.80;;;;;;;23.14;33.36;100517.97;8634506;33;20414;-71
2022/05/02 15:36:52;;;;;;;12.88;8.15;;;;;;;22.97;33.78;100503.72;8757815;32;20503;-75
2022/05/02 15:41:59;;;;;;;9.00;7.43;;;;;;;22.24;34.88;100505.13;8698559;33;20433;-75
2022/05/02 15:47:06;;;;;;;10.98;8.07;;;;;;;22.42;34.39;100499.16;8697821;33;20477;-75
2022/05/02 15:52:12;;;;;;;9.95;8.35;;;;;;;22.95;33.52;100497.59;8700341;33;20600;-75
2022/05/02 15:57:49;;;;;;;12.35;7.80;;;;;;;22.37;33.86;100494.28;8703316;33;20520;-74
2022/05/02 16:03:14;;;;;;;10.73;7.28;;;;;;;22.97;34.07;100491.94;8704446;33;20275;-74
2022/05/02 16:13:42;;;;;;;9.90;7.68;;;;;;;23.05;33.45;100489.03;8717283;33;20146;-74
2022/05/02 16:18:51;;;;;;;11.05;8.10;;;;;;;23.30;33.13;100480.31;8721213;33;20446;-75
2022/05/02 16:23:58;;;;;;;13.85;8.10;;;;;;;23.00;33.25;100486.88;8722638;33;20147;-75
2022/05/02 16:29:14;;;;;;;10.27;7.32;;;;;;;22.56;33.63;100484.53;8701460;33;20144;-74
2022/05/02 16:34:20;;;;;;;9.75;7.70;;;;;;;22.29;33.50;100481.59;8691970;33;20499;-74
2022/05/02 16:39:23;;;;;;;8.40;7.22;;;;;;;22.03;33.74;100473.19;8686908;33;20723;-75
2022/05/02 16:44:26;;;;;;;11.85;7.10;;;;;;;22.02;34.51;100471.47;8700439;33;20650;-74
2022/05/02 16:49:30;;;;;;;10.20;7.82;;;;;;;22.04;34.28;100472.13;8706423;33;20216;-75
2022/05/02 16:54:33;;;;;;;10.77;8.38;;;;;;;21.62;34.54;100471.09;8704212;33;20627;-73
2022/05/02 16:59:37;;;;;;;10.48;7.18;;;;;;;21.51;35.54;100468.88;8704454;33;20625;-74
2022/05/02 17:04:48;;;;;;;8.63;6.57;;;;;;;21.59;35.42;100475.06;8701094;33;20222;-74
2022/05/02 17:09:53;;;;;;;10.20;7.85;;;;;;;22.81;33.69;100476.69;8703990;33;20408;-73
2022/05/02 17:14:58;;;;;;;11.07;7.55;;;;;;;22.99;32.74;100477.00;8712378;33;20420;-74
2022/05/02 17:20:05;;;;;;;9.05;7.25;;;;;;;23.61;32.48;100483.34;8713120;33;20147;-75
2022/05/02 17:25:10;;;;;;;8.70;7.47;;;;;;;23.48;31.84;100475.09;8706026;33;20439;-74
2022/05/02 17:30:16;;;;;;;11.00;8.60;;;;;;;22.87;32.55;100491.44;8703620;33;20143;-74
2022/05/02 17:35:22;;;;;;;11.10;7.85;;;;;;;21.40;34.96;100490.19;8706432;33;20648;-74
2022/05/02 17:40:34;;;;;;;10.75;7.57;;;;;;;19.67;37.86;100484.03;8707162;33;20153;-74
2022/05/02 17:45:39;;;;;;;10.70;7.57;;;;;;;19.19;38.61;100486.81;8706036;33;20174;-74
2022/05/02 17:50:47;;;;;;;9.95;7.43;;;;;;;18.62;39.81;100494.34;8687195;33;21003;-75
2022/05/02 17:55:51;;;;;;;9.82;7.80;;;;;;;17.91;40.59;100500.38;8668882;33;20149;-75
2022/05/02 18:01:04;;;;;;;9.98;7.70;;;;;;;17.51;41.58;100495.72;8669021;33;21045;-74
2022/05/02 18:06:22;;;;;;;11.23;7.57;;;;;;;17.24;42.36;100499.56;8665647;33;20425;-75
2022/05/02 18:17:24;;;;;;;11.30;7.72;;;;;;;16.73;43.55;100498.66;8685614;33;20259;-74
2022/05/02 18:22:32;;;;;;;8.50;7.50;;;;;;;16.67;44.21;100508.28;8668213;33;20507;-75
2022/05/02 18:27:40;;;;;;;8.93;7.60;;;;;;;16.46;43.92;100511.41;8664660;33;20147;-75
2022/05/02 18:32:46;;;;;;;9.93;7.50;;;;;;;16.30;43.92;100503.16;8667271;33;20548;-72
2022/05/02 18:38:03;;;;;;;11.07;8.35;;;;;;;16.25;44.40;100521.72;8690890;33;20514;-72
2022/05/02 18:43:12;;;;;;;10.23;7.90;;;;;;;16.16;45.34;100515.38;8698075;33;20445;-74
2022/05/02 18:53:39;;;;;;;15.18;8.05;;;;;;;16.02;45.12;100527.63;8694487;33;20455;-74
2022/05/02 18:58:43;;;;;;;14.13;7.82;;;;;;;15.90;45.41;100521.59;8697047;33;20635;-73
2022/05/02 19:03:50;;;;;;;17.45;8.10;;;;;;;15.87;46.26;100527.31;8699687;33;20846;-73
2022/05/02 19:08:56;;;;;;;10.18;7.65;;;;;;;15.70;46.54;100531.75;8698832;33;20146;-73
2022/05/02 19:14:02;;;;;;;12.70;7.05;;;;;;;15.50;46.79;100546.44;8697573;33;20212;-73
2022/05/02 19:19:06;;;;;;;12.10;8.50;;;;;;;15.49;46.35;100552.81;8695209;33;20406;-73
2022/05/02 19:24:26;;;;;;;9.00;8.02;;;;;;;15.49;46.27;100558.25;8682957;33;20186;-73
2022/05/02 19:29:34;;;;;;;9.80;7.22;;;;;;;15.44;46.09;100558.72;8686295;33;20558;-73
2022/05/02 19:40:08;;;;;;;8.73;7.45;;;;;;;15.13;47.31;100565.41;8658806;33;20598;-73
2022/05/02 19:45:18;;;;;;;13.65;7.57;;;;;;;14.86;48.23;100561.66;8640771;33;20967;-74
2022/05/02 19:50:21;;;;;;;11.20;7.80;;;;;;;14.76;48.56;100567.13;8672172;33;20145;-74
2022/05/02 19:55:26;;;;;;;9.38;7.20;;;;;;;14.61;49.21;100582.09;8686985;33;21119;-74
2022/05/02 20:00:29;;;;;;;13.60;7.93;;;;;;;14.53;49.02;100581.97;8700838;33;20203;-75
2022/05/02 20:05:33;;;;;;;14.38;8.40;;;;;;;14.23;49.63;100577.56;8703265;33;20495;-74
2022/05/02 20:10:37;;;;;;;15.73;8.70;;;;;;;13.91;49.86;100584.97;8701237;33;20130;-73
2022/05/02 20:15:40;;;;;;;11.43;8.35;;;;;;;13.70;50.00;100595.88;8700804;33;20402;-73
2022/05/02 20:20:44;;;;;;;12.18;8.35;;;;;;;13.67;51.00;100606.09;8699816;33;20511;-73
2022/05/02 20:25:49;;;;;;;14.85;9.05;;;;;;;13.51;50.89;100606.63;8699396;33;20561;-74
2022/05/02 20:30:53;;;;;;;17.30;10.30;;;;;;;13.14;51.28;100611.75;8701084;33;20179;-73
2022/05/02 20:41:41;;;;;;;15.20;10.20;;;;;;;12.94;51.51;100622.41;8689921;33;20240;-73
2022/05/02 20:46:54;;;;;;;13.88;10.32;;;;;;;12.93;51.66;100625.25;8699553;33;20495;-74
2022/05/02 20:51:58;;;;;;;15.50;10.82;;;;;;;12.87;51.85;100629.34;8700287;33;20186;-73
2022/05/02 20:57:03;;;;;;;13.52;9.73;;;;;;;12.76;51.96;100626.72;8700434;33;20905;-73
2022/05/02 21:02:07;;;;;;;15.25;9.95;;;;;;;12.43;52.60;100634.03;8694376;33;20995;-73
2022/05/02 21:07:11;;;;;;;16.50;8.90;;;;;;;12.24;52.84;100639.22;8701748;33;20500;-73
2022/05/02 21:12:28;;;;;;;11.52;7.97;;;;;;;12.09;53.05;100647.56;8710919;33;20127;-73
2022/05/02 21:17:44;;;;;;;11.65;8.30;;;;;;;12.02;52.83;100649.09;8707469;33;20418;-73
2022/05/02 21:23:16;;;;;;;13.35;8.15;;;;;;;11.94;52.56;100635.41;8661082;33;20498;-73
2022/05/02 21:28:35;;;;;;;10.73;7.10;;;;;;;11.85;52.96;100631.66;8636695;33;21002;-74
2022/05/02 21:33:46;;;;;;;9.50;7.05;;;;;;;11.71;52.54;100638.16;8635344;33;20558;-73
2022/05/02 21:38:50;;;;;;;11.35;6.85;;;;;;;11.59;53.17;100641.84;8634199;33;20205;-74
2022/05/02 21:43:55;;;;;;;10.45;6.28;;;;;;;11.50;53.26;100640.75;8657967;33;20523;-74
2022/05/02 21:48:58;;;;;;;8.07;5.97;;;;;;;11.39;53.04;100637.22;8696908;33;20641;-74
2022/05/02 21:54:01;;;;;;;8.25;5.38;;;;;;;11.32;52.46;100641.38;8697669;33;20416;-73
2022/05/02 21:59:05;;;;;;;8.75;5.35;;;;;;;11.37;52.62;100649.94;8693372;33;20180;-74
2022/05/02 22:04:08;;;;;;;7.60;5.60;;;;;;;11.42;52.48;100648.59;8696027;33;20538;-74
2022/05/02 22:15:18;;;;;;;7.63;5.13;;;;;;;11.10;53.41;100653.81;8541375;33;20146;-74
2022/05/02 22:20:21;;;;;;;8.50;5.10;;;;;;;11.00;52.89;100653.69;8699047;33;20146;-74
2022/05/02 22:25:24;;;;;;;7.45;5.13;;;;;;;10.96;53.15;100654.91;8700078;33;20502;-74
2022/05/02 22:30:28;;;;;;;8.60;5.03;;;;;;;10.95;52.88;100655.03;8698582;33;20406;-74
2022/05/02 22:35:31;;;;;;;8.38;4.82;;;;;;;10.98;52.77;100654.78;8699603;33;20504;-74
2022/05/02 22:40:35;;;;;;;5.70;4.25;;;;;;;10.97;51.81;100662.00;8698208;33;20408;-74
2022/05/02 22:45:40;;;;;;;5.18;4.22;;;;;;;10.98;51.14;100661.03;8699894;33;20517;-74
2022/05/02 22:50:43;;;;;;;6.15;3.90;;;;;;;10.86;51.78;100658.44;8703738;33;20704;-74
2022/05/02 22:55:46;;;;;;;5.43;4.15;;;;;;;10.76;52.02;100661.00;8703047;33;20307;-74
2022/05/02 23:00:51;;;;;;;5.80;3.95;;;;;;;10.59;51.01;100657.78;8703445;33;20305;-74
2022/05/02 23:06:03;;;;;;;6.75;3.85;;;;;;;10.69;51.20;100667.78;8701220;33;20409;-75
2022/05/02 23:11:07;;;;;;;5.10;3.70;;;;;;;10.72;51.26;100659.50;8699498;33;20550;-73
2022/05/02 23:16:13;;;;;;;8.18;4.50;;;;;;;10.60;51.62;100664.84;8698754;33;20437;-74
2022/05/02 23:21:17;;;;;;;6.10;3.45;;;;;;;10.06;52.35;100659.97;8695455;33;20420;-74
2022/05/02 23:26:21;;;;;;;5.97;3.40;;;;;;;9.89;52.37;100655.88;8696566;33;20446;-74
2022/05/02 23:31:34;;;;;;;5.88;3.38;;;;;;;9.97;52.84;100659.84;8697532;33;20551;-74
2022/05/02 23:36:49;;;;;;;6.10;4.07;;;;;;;10.07;52.25;100648.28;8697193;33;20135;-74
2022/05/02 23:42:04;;;;;;;4.95;3.50;;;;;;;10.08;51.60;100657.19;8698902;33;20241;-73
2022/05/02 23:47:29;;;;;;;4.20;3.50;;;;;;;10.13;51.73;100655.03;8701157;33;20407;-73
2022/05/02 23:52:46;;;;;;;4.75;3.05;;;;;;;10.05;52.20;100652.06;8697960;33;20209;-72
2022/05/02 23:58:09;;;;;;;4.85;3.70;;;;;;;9.61;52.28;100650.81;8694376;33;21338;-73
